Time;durP1;ratioP1;P1;durP2;ratioP2;P2;SDS_P1;SDS_P2;PMS_P1;PMS_P2;Temp;Humidity;BMP_temperature;BMP_pressure;BME280_temperature;BME280_humidity;BME280_pressure;Samples;Min_cycle;Max_cycle;Signal;HPM_P1;HPM_P2
2022/08/27 00:02:20;;;;;;;;;27.67;25.00;;;;;24.18;57.86;100545.98;111092;1257;13360;-48
2022/08/27 00:04:48;;;;;;;;;29.33;24.33;;;;;24.06;58.23;100544.88;111031;1258;15425;-46
2022/08/27 00:07:15;;;;;;;;;27.67;27.00;;;;;24.18;58.03;100544.45;110943;1258;17084;-46
2022/08/27 00:09:43;;;;;;;;;26.67;24.00;;;;;24.16;58.14;100540.36;110929;1257;15067;-48
2022/08/27 00:12:10;;;;;;;;;29.00;26.00;;;;;24.18;58.13;100536.02;111023;1259;13711;-48
2022/08/27 00:14:37;;;;;;;;;31.33;28.67;;;;;24.14;58.31;100532.52;110990;1258;15465;-47
2022/08/27 00:17:05;;;;;;;;;27.33;25.33;;;;;24.08;58.48;100531.90;111008;1257;13187;-48
2022/08/27 00:19:33;;;;;;;;;28.50;26.00;;;;;24.14;58.46;100535.77;111038;1258;15263;-47
2022/08/27 00:22:00;;;;;;;;;30.00;25.67;;;;;24.15;58.36;100531.59;111015;1258;13804;-48
2022/08/27 00:24:27;;;;;;;;;27.67;25.33;;;;;24.05;58.67;100537.27;111040;1258;15648;-47
2022/08/27 00:26:55;;;;;;;;;27.67;26.33;;;;;23.92;58.87;100535.16;111030;1258;14686;-48
2022/08/27 00:29:22;;;;;;;;;28.00;27.00;;;;;23.85;59.19;100536.60;111077;1257;13232;-46
2022/08/27 00:31:50;;;;;;;;;32.67;28.00;;;;;23.89;59.03;100534.42;111036;1258;14493;-48
2022/08/27 00:34:17;;;;;;;;;34.67;28.33;;;;;23.84;59.12;100540.08;110960;1258;14879;-48
2022/08/27 00:36:44;;;;;;;;;31.33;28.00;;;;;23.83;59.24;100545.59;110992;1257;14235;-48
2022/08/27 00:39:12;;;;;;;;;28.33;28.33;;;;;23.92;59.05;100545.85;110775;1258;15573;-51
2022/08/27 00:41:39;;;;;;;;;29.33;27.00;;;;;24.04;58.71;100545.92;111048;1257;14816;-47
2022/08/27 00:44:06;;;;;;;;;25.00;25.00;;;;;23.92;58.80;100548.93;111052;1258;13186;-48
2022/08/27 00:46:34;;;;;;;;;30.33;27.33;;;;;23.91;58.94;100549.80;110987;1258;14027;-48
2022/08/27 00:49:01;;;;;;;;;29.00;27.67;;;;;24.04;58.58;100548.86;110996;1257;15384;-48
2022/08/27 00:51:28;;;;;;;;;25.33;24.00;;;;;24.07;58.46;100549.75;111057;1257;13347;-48
2022/08/27 00:53:56;;;;;;;;;29.00;26.67;;;;;24.20;58.07;100545.64;111032;1257;14562;-48
2022/08/27 00:56:23;;;;;;;;;29.00;24.67;;;;;24.04;58.26;100549.88;111078;1257;13236;-47
2022/08/27 00:58:51;;;;;;;;;26.00;25.00;;;;;24.10;58.31;100555.37;111052;1258;14049;-48
2022/08/27 01:01:19;;;;;;;;;25.67;24.33;;;;;24.11;58.13;100551.67;111011;1257;14622;-48
2022/08/27 01:03:47;;;;;;;;;26.00;24.00;;;;;24.08;58.13;100545.80;110921;1258;14772;-49
2022/08/27 01:06:14;;;;;;;;;24.67;23.67;;;;;23.94;58.30;100546.27;110877;1258;14831;-48
2022/08/27 01:08:42;;;;;;;;;25.00;24.00;;;;;23.85;58.50;100545.02;110808;1258;14974;-47
2022/08/27 01:11:10;;;;;;;;;29.67;27.33;;;;;23.93;58.38;100540.09;110838;1258;13271;-48
2022/08/27 01:13:37;;;;;;;;;28.00;27.00;;;;;23.96;58.20;100539.98;110789;1258;14118;-49
2022/08/27 01:16:05;;;;;;;;;29.00;23.00;;;;;24.11;57.99;100537.18;110747;1259;13615;-48
2022/08/27 01:18:32;;;;;;;;;27.67;27.33;;;;;24.14;57.76;100538.80;110743;1259;18172;-47
2022/08/27 01:21:00;;;;;;;;;24.00;23.00;;;;;24.12;57.82;100538.70;110790;1259;14790;-48
2022/08/27 01:23:28;;;;;;;;;28.00;25.00;;;;;23.99;57.99;100538.60;110854;1259;11575;-48
2022/08/27 01:25:55;;;;;;;;;28.00;27.00;;;;;23.79;58.53;100533.14;110780;1258;14175;-48
2022/08/27 01:28:23;;;;;;;;;29.67;26.00;;;;;23.87;58.42;100529.73;110750;1258;18032;-50
2022/08/27 01:30:50;;;;;;;;;25.00;24.67;;;;;23.69;58.76;100535.69;110767;1258;14272;-48
2022/08/27 01:33:17;;;;;;;;;28.33;27.00;;;;;23.63;59.09;100533.84;110772;1258;14371;-45
2022/08/27 01:35:45;;;;;;;;;29.33;27.33;;;;;23.65;59.03;100532.85;110792;1259;13168;-49
2022/08/27 01:38:12;;;;;;;;;29.67;26.00;;;;;23.42;59.43;100540.34;110774;1259;13619;-49
2022/08/27 01:40:40;;;;;;;;;27.00;24.00;;;;;23.52;59.39;100539.26;110659;1259;13180;-48
2022/08/27 01:43:07;;;;;;;;;28.67;27.00;;;;;23.57;59.25;100537.19;110864;1258;13281;-44
2022/08/27 01:45:35;;;;;;;;;28.00;24.00;;;;;23.52;59.30;100533.02;110712;1259;18267;-49
2022/08/27 01:48:02;;;;;;;;;24.67;23.00;;;;;23.47;59.47;100529.51;110645;1258;14571;-47
2022/08/27 01:50:30;;;;;;;;;22.33;22.00;;;;;23.32;59.83;100535.29;110795;1259;13341;-46
2022/08/27 01:52:58;;;;;;;;;27.50;24.00;;;;;23.34;59.98;100539.09;110796;1259;13406;-48
2022/08/27 01:55:25;;;;;;;;;29.00;25.00;;;;;23.41;59.88;100543.19;110681;1258;14172;-47
2022/08/27 01:57:53;;;;;;;;;27.00;25.67;;;;;23.36;59.98;100541.47;110645;1259;13414;-44
2022/08/27 02:00:20;;;;;;;;;28.50;27.00;;;;;23.32;60.18;100538.81;110680;1259;13391;-50
2022/08/27 02:02:48;;;;;;;;;25.50;24.00;;;;;23.27;60.44;100536.35;110698;1258;13511;-47
2022/08/27 02:05:15;;;;;;;;;23.00;21.33;;;;;23.25;60.53;100538.05;110958;1258;13191;-46
2022/08/27 02:07:42;;;;;;;;;27.67;23.67;;;;;23.28;60.59;100537.36;111030;1258;13189;-48
2022/08/27 02:10:10;;;;;;;;;24.00;22.00;;;;;23.34;60.48;100535.34;110847;1258;13240;-47
2022/08/27 02:12:37;;;;;;;;;23.67;23.67;;;;;23.41;60.31;100533.54;111002;1258;13645;-47
2022/08/27 02:15:05;;;;;;;;;23.67;22.67;;;;;23.28;60.65;100532.69;110992;1259;13760;-48
2022/08/27 02:17:33;;;;;;;;;26.33;25.00;;;;;23.19;60.94;100533.70;111041;1258;13199;-47
2022/08/27 02:20:00;;;;;;;;;25.50;24.50;;;;;23.38;60.55;100537.23;110977;1258;16876;-48
2022/08/27 02:22:28;;;;;;;;;27.33;25.33;;;;;23.31;60.63;100533.02;111020;1257;13207;-48
2022/08/27 02:24:55;;;;;;;;;27.00;23.00;;;;;23.21;60.90;100531.63;111009;1258;14810;-48
2022/08/27 02:27:23;;;;;;;;;27.00;26.00;;;;;23.18;61.10;100529.84;111035;1258;14872;-48
2022/08/27 02:29:51;;;;;;;;;26.33;25.00;;;;;23.38;60.67;100531.95;111037;1258;15123;-47
2022/08/27 02:32:20;;;;;;;;;26.67;24.00;;;;;23.27;60.71;100533.06;111101;1258;13220;-47
2022/08/27 02:34:48;;;;;;;;;26.67;26.00;;;;;23.29;60.71;100531.80;110802;1258;14933;-48
2022/08/27 02:37:15;;;;;;;;;27.33;26.33;;;;;23.30;60.60;100531.23;111012;1258;14134;-47
2022/08/27 02:39:42;;;;;;;;;23.00;22.00;;;;;23.41;60.38;100531.02;110962;1258;14422;-51
2022/08/27 02:42:10;;;;;;;;;26.67;25.00;;;;;23.41;60.16;100531.77;111090;1257;14713;-47
2022/08/27 02:44:38;;;;;;;;;26.67;25.33;;;;;23.38;60.18;100532.98;111024;1258;13131;-47
2022/08/27 02:47:05;;;;;;;;;26.00;23.33;;;;;23.39;60.10;100527.93;111004;1258;13229;-47
2022/08/27 02:49:33;;;;;;;;;30.67;26.67;;;;;23.20;60.38;100528.46;110994;1257;15050;-48
2022/08/27 02:52:02;;;;;;;;;29.33;27.67;;;;;23.08;60.68;100533.95;111035;1257;15507;-46
2022/08/27 02:54:29;;;;;;;;;26.00;23.00;;;;;23.04;60.83;100530.38;110989;1258;16452;-48
2022/08/27 02:56:57;;;;;;;;;27.33;25.33;;;;;23.00;60.93;100529.80;111034;1256;14772;-47
2022/08/27 02:59:24;;;;;;;;;26.00;25.00;;;;;23.10;60.72;100532.33;111074;1258;13114;-47
2022/08/27 03:01:52;;;;;;;;;28.33;26.33;;;;;23.00;60.93;100530.52;111037;1257;13638;-47
2022/08/27 03:04:19;;;;;;;;;29.00;25.00;;;;;22.89;61.39;100530.46;111019;1258;13934;-47
2022/08/27 03:06:47;;;;;;;;;25.33;25.33;;;;;22.90;61.49;100532.66;111063;1258;13555;-47
2022/08/27 03:09:14;;;;;;;;;27.67;25.67;;;;;22.95;61.60;100529.01;110964;1257;13219;-50
2022/08/27 03:11:42;;;;;;;;;24.33;23.00;;;;;23.16;61.34;100532.27;111004;1257;13206;-49
2022/08/27 03:14:09;;;;;;;;;30.00;27.00;;;;;23.04;61.65;100530.73;110858;1257;13205;-44
2022/08/27 03:16:36;;;;;;;;;27.00;23.67;;;;;22.87;62.35;100531.04;110854;1258;13381;-45
2022/08/27 03:19:05;;;;;;;;;28.00;26.00;;;;;22.82;62.88;100527.68;111015;1259;13399;-47
2022/08/27 03:21:33;;;;;;;;;26.00;23.33;;;;;22.84;63.09;100526.19;111066;1258;14724;-47
2022/08/27 03:24:01;;;;;;;;;29.00;25.00;;;;;22.83;63.22;100526.27;111009;1257;14144;-47
2022/08/27 03:26:28;;;;;;;;;26.33;25.33;;;;;22.77;63.47;100528.13;111059;1258;13094;-47
2022/08/27 03:28:55;;;;;;;;;30.50;25.50;;;;;22.65;63.83;100523.48;110980;1259;14157;-48
2022/08/27 03:31:26;;;;;;;;;29.00;29.00;;;;;22.72;63.72;100524.09;111040;1258;14113;-48
2022/08/27 03:33:54;;;;;;;;;30.00;26.67;;;;;22.79;63.39;100521.30;111021;1258;14103;-47
2022/08/27 03:36:21;;;;;;;;;30.33;26.33;;;;;22.83;63.10;100520.08;111015;1258;13690;-48
2022/08/27 03:38:49;;;;;;;;;32.00;26.67;;;;;22.82;62.84;100522.34;110947;1258;14120;-49
2022/08/27 03:41:16;;;;;;;;;30.00;28.67;;;;;22.78;62.79;100523.72;111055;1258;13173;-47
2022/08/27 03:43:44;;;;;;;;;26.33;25.67;;;;;22.73;62.73;100522.64;111011;1258;15095;-47
2022/08/27 03:46:11;;;;;;;;;28.67;25.00;;;;;22.75;62.59;100524.45;111051;1258;14105;-47
2022/08/27 03:48:39;;;;;;;;;28.00;27.00;;;;;22.65;62.68;100521.96;111024;1258;13089;-49
2022/08/27 03:51:06;;;;;;;;;27.33;26.67;;;;;22.67;62.66;100523.33;111017;1257;13657;-46
2022/08/27 03:53:34;;;;;;;;;27.67;25.33;;;;;22.76;62.35;100521.66;111064;1258;13186;-45
2022/08/27 03:56:01;;;;;;;;;25.67;24.67;;;;;22.76;62.16;100514.38;111002;1258;13072;-45
2022/08/27 03:58:29;;;;;;;;;32.00;27.33;;;;;22.71;62.34;100517.60;110943;1258;13285;-43
2022/08/27 04:00:56;;;;;;;;;30.00;28.50;;;;;22.82;62.04;100513.81;110907;1258;14730;-49
2022/08/27 04:03:24;;;;;;;;;26.33;24.67;;;;;22.95;61.65;100510.80;110947;1258;13919;-47
2022/08/27 04:05:51;;;;;;;;;22.67;22.33;;;;;23.10;61.18;100515.89;111002;1258;14148;-47
2022/08/27 04:08:18;;;;;;;;;29.00;23.00;;;;;22.75;61.78;100515.89;111043;1258;13143;-51
2022/08/27 04:10:46;;;;;;;;;31.50;27.50;;;;;22.58;62.36;100519.41;111017;1258;15213;-46
2022/08/27 04:13:14;;;;;;;;;30.00;25.00;;;;;22.72;62.12;100521.28;111018;1258;15018;-47
2022/08/27 04:15:41;;;;;;;;;32.67;29.33;;;;;22.73;61.86;100517.88;110757;1258;15104;-47
2022/08/27 04:18:09;;;;;;;;;29.50;25.50;;;;;22.61;62.10;100524.94;111043;1259;14080;-48
2022/08/27 04:20:36;;;;;;;;;28.00;26.00;;;;;22.53;62.37;100520.96;111100;1258;13245;-48
2022/08/27 04:23:03;;;;;;;;;27.67;25.67;;;;;22.62;62.28;100519.62;111034;1259;14150;-49
2022/08/27 04:25:31;;;;;;;;;29.33;26.00;;;;;22.63;62.21;100524.11;110983;1258;13723;-46
2022/08/27 04:27:58;;;;;;;;;25.00;24.50;;;;;22.59;62.36;100525.17;110985;1258;13713;-47
2022/08/27 04:30:26;;;;;;;;;30.00;27.00;;;;;22.69;62.16;100526.20;110992;1258;14024;-48
2022/08/27 04:32:53;;;;;;;;;29.00;28.67;;;;;22.83;61.82;100526.30;110929;1258;13318;-47
2022/08/27 04:35:20;;;;;;;;;33.33;27.67;;;;;22.85;61.83;100530.87;111011;1258;13164;-48
2022/08/27 04:37:48;;;;;;;;;25.33;25.00;;;;;22.83;61.92;100526.04;110700;1258;14651;-47
2022/08/27 04:40:15;;;;;;;;;27.33;24.33;;;;;22.79;61.96;100528.92;110993;1258;14448;-49
2022/08/27 04:42:43;;;;;;;;;28.00;26.00;;;;;22.72;62.27;100528.12;110953;1258;15439;-47
2022/08/27 04:45:10;;;;;;;;;30.00;26.67;;;;;22.62;62.85;100529.66;111023;1258;14437;-47
2022/08/27 04:47:37;;;;;;;;;33.33;28.00;;;;;22.60;63.04;100526.33;111051;1258;13113;-47
2022/08/27 04:50:05;;;;;;;;;26.67;25.00;;;;;22.69;62.94;100528.10;110995;1257;14679;-45
2022/08/27 04:52:33;;;;;;;;;24.33;22.67;;;;;22.66;62.82;100533.70;111012;1259;14709;-47
2022/08/27 04:55:00;;;;;;;;;28.00;27.50;;;;;22.52;63.31;100538.59;110969;1258;15050;-50
2022/08/27 04:57:27;;;;;;;;;26.33;25.00;;;;;22.63;63.21;100535.76;110956;1258;13605;-48
2022/08/27 04:59:56;;;;;;;;;28.00;26.50;;;;;22.57;63.32;100531.04;110857;1258;14703;-47
2022/08/27 05:02:24;;;;;;;;;30.00;26.33;;;;;22.59;63.36;100529.06;111068;1257;13067;-46
2022/08/27 05:04:52;;;;;;;;;29.33;25.00;;;;;22.79;62.91;100537.15;110978;1258;15132;-47
2022/08/27 05:07:19;;;;;;;;;29.50;25.00;;;;;22.91;62.41;100533.63;110966;1257;15461;-48
2022/08/27 05:09:46;;;;;;;;;27.67;24.67;;;;;22.99;61.92;100533.67;110953;1258;14789;-47
2022/08/27 05:12:14;;;;;;;;;32.67;29.33;;;;;22.92;62.10;100534.27;110987;1257;13758;-47
2022/08/27 05:14:41;;;;;;;;;33.00;31.00;;;;;23.04;61.88;100533.42;111046;1256;13042;-46
2022/08/27 05:17:09;;;;;;;;;31.00;29.67;;;;;23.14;61.49;100541.09;110284;1258;951615;-47
2022/08/27 05:19:36;;;;;;;;;31.00;28.33;;;;;22.95;61.54;100536.27;111033;1257;14329;-46
2022/08/27 05:22:03;;;;;;;;;29.00;27.33;;;;;22.86;61.78;100535.96;111018;1259;13481;-47
2022/08/27 05:24:31;;;;;;;;;29.00;29.00;;;;;22.70;62.15;100529.92;110970;1258;14778;-47
2022/08/27 05:26:59;;;;;;;;;33.67;28.33;;;;;22.95;61.74;100533.88;110983;1259;14832;-47
2022/08/27 05:29:27;;;;;;;;;29.67;25.33;;;;;23.08;61.22;100532.23;111053;1258;13927;-47
2022/08/27 05:31:55;;;;;;;;;36.67;33.33;;;;;23.17;60.85;100532.05;111046;1258;14658;-48
2022/08/27 05:34:22;;;;;;;;;30.33;28.67;;;;;23.19;60.74;100534.81;111069;1258;14636;-48
2022/08/27 05:36:50;;;;;;;;;31.00;26.50;;;;;23.15;60.69;100527.41;110946;1257;14843;-46
2022/08/27 05:39:18;;;;;;;;;27.00;26.00;;;;;23.12;60.74;100533.52;110915;1258;15441;-47
2022/08/27 05:41:45;;;;;;;;;35.50;30.00;;;;;23.27;60.43;100527.25;110926;1257;14868;-50
2022/08/27 05:44:14;;;;;;;;;30.50;25.50;;;;;23.33;60.29;100529.91;110954;1258;10507;-49
2022/08/27 05:46:41;;;;;;;;;36.50;31.00;;;;;23.32;60.35;100531.70;110931;1257;13165;-48
2022/08/27 05:49:09;;;;;;;;;30.33;27.67;;;;;23.23;60.52;100529.23;110826;1258;15310;-48
2022/08/27 05:51:37;;;;;;;;;31.00;28.50;;;;;23.30;60.32;100527.95;110881;1259;13354;-49
2022/08/27 05:54:04;;;;;;;;;32.00;30.00;;;;;23.38;60.29;100530.91;111014;1257;14799;-48
2022/08/27 05:56:32;;;;;;;;;34.67;31.67;;;;;23.51;60.00;100525.88;110879;1259;13150;-48
2022/08/27 06:01:44;;;;;;;;;36.67;32.67;;;;;23.77;59.44;100531.41;110760;1258;14855;-46
2022/08/27 06:04:12;;;;;;;;;34.50;30.50;;;;;23.68;59.61;100530.14;110932;1257;14787;-47
2022/08/27 06:06:39;;;;;;;;;31.00;30.00;;;;;23.79;59.59;100533.77;110944;1258;14847;-47
2022/08/27 06:09:07;;;;;;;;;41.67;36.67;;;;;23.82;59.64;100536.77;110953;1258;14753;-46
2022/08/27 06:11:35;;;;;;;;;37.67;35.67;;;;;23.89;59.64;100528.40;111024;1258;13209;-48
2022/08/27 06:14:02;;;;;;;;;37.33;33.00;;;;;23.95;59.73;100530.46;110985;1258;14406;-49
2022/08/27 06:16:29;;;;;;;;;36.33;34.00;;;;;24.01;59.70;100528.97;110919;1258;14678;-50
2022/08/27 06:18:57;;;;;;;;;36.00;34.50;;;;;23.93;60.03;100529.19;110818;1257;13445;-48
2022/08/27 06:21:25;;;;;;;;;37.00;34.33;;;;;23.85;60.18;100529.78;110950;1258;14916;-48
2022/08/27 06:23:52;;;;;;;;;30.00;28.00;;;;;23.85;60.11;100529.69;110991;1258;14086;-47
2022/08/27 06:26:19;;;;;;;;;39.00;37.00;;;;;23.69;60.41;100530.84;111077;1258;13180;-49
2022/08/27 06:28:47;;;;;;;;;36.00;36.00;;;;;23.68;60.62;100535.05;111016;1258;13860;-48
2022/08/27 06:31:14;;;;;;;;;34.00;33.00;;;;;23.99;60.19;100537.25;110986;1258;13076;-48
2022/08/27 06:33:42;;;;;;;;;34.00;32.33;;;;;24.25;59.58;100537.58;110968;1258;14139;-44
2022/08/27 06:36:10;;;;;;;;;33.67;32.33;;;;;24.43;59.13;100533.95;110968;1257;15353;-48
2022/08/27 06:38:37;;;;;;;;;29.67;28.00;;;;;24.33;59.00;100528.19;111026;1257;13259;-47
2022/08/27 06:41:04;;;;;;;;;31.00;29.50;;;;;24.53;58.75;100529.23;110988;1258;15133;-48
2022/08/27 06:43:32;;;;;;;;;27.33;27.33;;;;;24.71;58.15;100527.07;111025;1258;16755;-46
2022/08/27 06:45:59;;;;;;;;;31.67;30.67;;;;;24.70;58.04;100526.23;111010;1258;15497;-45
2022/08/27 06:48:27;;;;;;;;;34.50;30.00;;;;;24.83;57.70;100524.17;111021;1259;14913;-47
2022/08/27 06:50:54;;;;;;;;;36.67;33.67;;;;;24.88;57.49;100523.67;110934;1258;16529;-46
2022/08/27 06:53:21;;;;;;;;;31.33;30.00;;;;;24.96;57.31;100525.25;111030;1258;13150;-49
2022/08/27 06:55:49;;;;;;;;;30.00;30.00;;;;;25.20;56.73;100528.99;110965;1258;13252;-46
2022/08/27 06:58:17;;;;;;;;;33.50;32.00;;;;;25.12;56.32;100533.21;111003;1258;13097;-47
2022/08/27 07:00:44;;;;;;;;;39.67;34.00;;;;;24.97;56.10;100528.58;111020;1258;13247;-48
2022/08/27 07:03:11;;;;;;;;;32.33;32.00;;;;;24.96;56.20;100529.50;110975;1258;13230;-46
2022/08/27 07:05:38;;;;;;;;;32.33;29.33;;;;;25.10;55.66;100531.77;111055;1257;13134;-47
2022/08/27 07:08:06;;;;;;;;;36.67;29.67;;;;;25.16;55.41;100529.77;111025;1258;14357;-47
2022/08/27 07:10:33;;;;;;;;;30.67;29.00;;;;;25.39;55.07;100527.03;110973;1257;13304;-47
2022/08/27 07:13:01;;;;;;;;;31.67;27.67;;;;;25.61;54.58;100528.06;111027;1258;22138;-50
2022/08/27 07:15:28;;;;;;;;;32.67;30.00;;;;;25.70;54.28;100529.48;111051;1258;14598;-48
2022/08/27 07:17:56;;;;;;;;;29.00;28.00;;;;;25.78;54.13;100530.86;111036;1258;14717;-48
2022/08/27 07:20:24;;;;;;;;;30.00;29.33;;;;;25.82;53.92;100531.00;111046;1258;13618;-47
2022/08/27 07:22:53;;;;;;;;;29.67;27.33;;;;;25.74;53.93;100529.14;110983;1257;14629;-47
2022/08/27 07:25:20;;;;;;;;;33.67;31.00;;;;;25.73;54.09;100525.34;110979;1258;14627;-48
2022/08/27 07:27:47;;;;;;;;;31.00;28.33;;;;;25.80;53.82;100521.16;110875;1258;14977;-46
2022/08/27 07:30:15;;;;;;;;;28.00;26.00;;;;;25.77;54.01;100523.80;110859;1257;14632;-49
2022/08/27 07:32:42;;;;;;;;;29.33;27.33;;;;;25.68;54.26;100517.48;111316;1258;13116;-48
2022/08/27 07:35:10;;;;;;;;;30.33;28.33;;;;;25.81;54.14;100515.74;110974;1258;14643;-48
2022/08/27 07:37:37;;;;;;;;;26.33;25.33;;;;;25.97;54.08;100512.86;111006;1258;14299;-47
2022/08/27 07:40:05;;;;;;;;;32.00;27.67;;;;;26.09;53.89;100512.45;111009;1259;14378;-47
2022/08/27 07:45:17;;;;;;;;;31.50;28.00;;;;;26.07;53.57;100520.57;110955;1258;14606;-47
2022/08/27 07:47:45;;;;;;;;;24.67;23.33;;;;;26.16;53.45;100521.38;111029;1258;13164;-47
2022/08/27 07:50:12;;;;;;;;;29.00;27.67;;;;;26.22;53.11;100524.22;110957;1258;13364;-45
2022/08/27 07:52:40;;;;;;;;;31.33;27.67;;;;;26.24;53.02;100523.30;110981;1258;14603;-47
2022/08/27 07:55:08;;;;;;;;;29.33;28.33;;;;;26.29;52.85;100520.64;110869;1256;14797;-48
2022/08/27 07:57:35;;;;;;;;;28.00;25.67;;;;;26.10;52.87;100519.08;110928;1258;14626;-47
2022/08/27 08:00:02;;;;;;;;;29.33;27.67;;;;;26.08;52.96;100519.37;110792;1258;15099;-47
2022/08/27 08:02:30;;;;;;;;;30.33;28.00;;;;;26.21;52.95;100519.74;110846;1258;13152;-46
2022/08/27 08:04:57;;;;;;;;;30.33;26.67;;;;;26.24;52.83;100516.04;110935;1257;14742;-48
2022/08/27 08:07:25;;;;;;;;;31.00;29.00;;;;;26.30;52.68;100514.80;110953;1258;14478;-47
2022/08/27 08:09:52;;;;;;;;;30.00;28.67;;;;;26.26;52.45;100512.98;110904;1257;14544;-48
2022/08/27 08:12:19;;;;;;;;;31.00;30.50;;;;;26.17;52.79;100511.30;110951;1256;15027;-47
2022/08/27 08:14:47;;;;;;;;;33.33;30.67;;;;;26.31;52.58;100510.94;111002;1258;13353;-47
2022/08/27 08:17:15;;;;;;;;;30.00;29.00;;;;;26.38;52.38;100508.08;111055;1257;13082;-47
2022/08/27 08:19:42;;;;;;;;;30.33;28.67;;;;;26.43;52.36;100507.35;111012;1258;14402;-48
2022/08/27 08:22:10;;;;;;;;;31.00;29.00;;;;;26.43;52.38;100512.38;110981;1258;14392;-48
2022/08/27 08:24:37;;;;;;;;;29.67;27.00;;;;;26.42;52.26;100515.52;110967;1258;13319;-49
2022/08/27 08:27:05;;;;;;;;;29.33;28.00;;;;;26.46;52.17;100514.86;110932;1256;13141;-47
2022/08/27 08:29:32;;;;;;;;;27.33;27.00;;;;;26.59;51.85;100514.74;110850;1258;13201;-50
2022/08/27 08:31:59;;;;;;;;;26.67;24.33;;;;;26.57;51.74;100512.92;110819;1259;14356;-48
2022/08/27 08:34:27;;;;;;;;;27.33;26.67;;;;;26.73;51.27;100516.22;110877;1258;14310;-47
2022/08/27 08:36:55;;;;;;;;;31.33;28.00;;;;;26.78;50.42;100513.89;110969;1258;13109;-48
2022/08/27 08:39:22;;;;;;;;;29.50;27.00;;;;;26.81;49.87;100512.02;110900;1258;13177;-47
2022/08/27 08:41:50;;;;;;;;;24.33;24.33;;;;;26.80;49.84;100513.58;110943;1257;15240;-49
2022/08/27 08:44:17;;;;;;;;;27.33;24.67;;;;;26.78;49.80;100513.14;110961;1259;13174;-51
2022/08/27 08:46:45;;;;;;;;;30.00;26.00;;;;;26.83;49.75;100510.80;110950;1258;13511;-48
2022/08/27 08:49:12;;;;;;;;;25.33;24.00;;;;;26.98;49.10;100518.36;110975;1258;13146;-45
2022/08/27 08:51:40;;;;;;;;;29.00;22.33;;;;;26.99;48.79;100516.45;111034;1258;14312;-47
2022/08/27 08:54:08;;;;;;;;;25.00;23.67;;;;;26.95;48.91;100515.94;110900;1258;14620;-46
2022/08/27 08:56:35;;;;;;;;;28.33;26.33;;;;;26.71;49.92;100513.27;111007;1258;13217;-47
2022/08/27 08:59:03;;;;;;;;;24.00;23.00;;;;;26.45;50.67;100509.36;110876;1259;15310;-47
2022/08/27 09:01:30;;;;;;;;;24.50;24.50;;;;;26.33;51.25;100506.11;110976;1257;15087;-46
2022/08/27 09:03:58;;;;;;;;;25.00;23.00;;;;;26.25;51.65;100504.38;110991;1258;14396;-47
2022/08/27 09:06:25;;;;;;;;;28.00;24.67;;;;;26.19;51.96;100506.09;110983;1258;13820;-48
2022/08/27 09:08:53;;;;;;;;;25.33;23.67;;;;;26.16;52.25;100501.46;111010;1258;14656;-48
2022/08/27 09:11:21;;;;;;;;;21.50;20.50;;;;;26.16;52.43;100502.83;111024;1257;13203;-48
2022/08/27 09:13:48;;;;;;;;;20.00;19.00;;;;;26.10;52.63;100502.09;111012;1257;13194;-48
2022/08/27 09:16:17;;;;;;;;;22.00;21.00;;;;;26.10;52.80;100500.94;111021;1258;13339;-49
2022/08/27 09:18:44;;;;;;;;;22.67;20.67;;;;;26.09;52.89;100498.92;111005;1258;15058;-48
2022/08/27 09:21:12;;;;;;;;;24.00;20.67;;;;;26.06;53.02;100495.63;111005;1258;14562;-46
2022/08/27 09:23:40;;;;;;;;;26.00;20.50;;;;;26.06;53.13;100497.66;111055;1258;13178;-45
2022/08/27 09:26:07;;;;;;;;;18.00;17.00;;;;;26.06;53.16;100499.40;110922;1257;14767;-44
2022/08/27 09:31:20;;;;;;;;;22.33;21.33;;;;;26.02;53.36;100495.89;110877;1257;15491;-47
2022/08/27 09:33:47;;;;;;;;;19.33;17.00;;;;;26.02;53.42;100494.42;110948;1257;14345;-47
2022/08/27 09:36:15;;;;;;;;;24.67;21.00;;;;;26.03;53.38;100493.91;111031;1258;14858;-48
2022/08/27 09:38:42;;;;;;;;;20.33;18.00;;;;;26.04;53.42;100495.09;111058;1258;13202;-47
2022/08/27 09:41:10;;;;;;;;;21.33;21.00;;;;;26.04;53.46;100497.34;111038;1258;15556;-48
2022/08/27 09:43:42;;;;;;;;;20.67;20.33;;;;;26.02;53.48;100497.67;111014;1257;14258;-48
2022/08/27 09:46:09;;;;;;;;;21.67;20.00;;;;;26.00;53.58;100498.31;110982;1257;13529;-46
2022/08/27 09:48:37;;;;;;;;;22.00;18.50;;;;;26.02;53.60;100494.26;111008;1258;14961;-46
2022/08/27 09:51:04;;;;;;;;;19.00;18.67;;;;;26.01;53.59;100495.14;111023;1257;16332;-47
2022/08/27 09:53:32;;;;;;;;;19.00;18.00;;;;;25.98;53.74;100497.06;110993;1259;13048;-44
2022/08/27 09:55:59;;;;;;;;;18.00;17.33;;;;;25.97;53.78;100494.75;110995;1259;15313;-47
2022/08/27 09:58:27;;;;;;;;;21.00;18.00;;;;;25.99;53.73;100493.59;110901;1258;14730;-48
2022/08/27 10:00:54;;;;;;;;;18.00;17.67;;;;;26.04;53.84;100493.66;110834;1258;14603;-48
2022/08/27 10:03:22;;;;;;;;;19.33;17.00;;;;;26.04;54.13;100494.75;110964;1259;15116;-47
2022/08/27 10:05:50;;;;;;;;;18.33;16.33;;;;;26.02;54.38;100492.22;111078;1257;13171;-47
2022/08/27 10:08:18;;;;;;;;;17.33;17.00;;;;;26.04;54.44;100491.38;111053;1258;13132;-48
2022/08/27 10:10:45;;;;;;;;;21.50;19.00;;;;;26.05;54.50;100490.40;111014;1258;15267;-50
2022/08/27 10:13:13;;;;;;;;;16.00;16.00;;;;;26.06;54.52;100489.96;111001;1257;14839;-47
2022/08/27 10:15:40;;;;;;;;;19.67;17.00;;;;;26.06;54.56;100489.67;110962;1258;15449;-46
2022/08/27 10:18:07;;;;;;;;;22.00;21.33;;;;;26.05;54.55;100490.31;110953;1257;15048;-46
2022/08/27 10:20:35;;;;;;;;;20.67;16.67;;;;;26.09;54.57;100488.23;110890;1258;13416;-45
2022/08/27 10:23:04;;;;;;;;;18.00;17.00;;;;;26.07;54.52;100490.09;110977;1258;15842;-49
2022/08/27 10:25:31;;;;;;;;;18.33;16.00;;;;;26.04;54.49;100489.55;110995;1257;14300;-50
2022/08/27 10:27:59;;;;;;;;;16.00;16.00;;;;;26.02;54.48;100488.04;111017;1258;15189;-47
2022/08/27 10:30:29;;;;;;;;;20.00;16.67;;;;;26.01;54.43;100479.51;110939;1258;14611;-46
2022/08/27 10:32:56;;;;;;;;;17.33;16.33;;;;;26.00;54.40;100484.68;111564;1257;15666;-47
2022/08/27 10:35:24;;;;;;;;;17.00;16.00;;;;;26.01;54.39;100479.77;111064;1258;12898;-48
2022/08/27 10:37:51;;;;;;;;;16.33;15.67;;;;;26.00;54.31;100475.13;111019;1258;15150;-47
2022/08/27 10:40:19;;;;;;;;;17.33;16.67;;;;;26.01;54.29;100477.32;111026;1258;14950;-48
2022/08/27 10:42:46;;;;;;;;;18.00;17.00;;;;;26.03;54.21;100474.17;111060;1258;14271;-48
2022/08/27 10:45:14;;;;;;;;;18.33;17.00;;;;;26.02;54.20;100474.64;111003;1257;14260;-48
2022/08/27 10:47:41;;;;;;;;;21.00;17.00;;;;;26.01;54.17;100477.15;111097;1258;13288;-49
2022/08/27 10:50:09;;;;;;;;;16.50;15.00;;;;;25.98;54.21;100471.98;111031;1259;14636;-48
2022/08/27 10:52:37;;;;;;;;;16.00;16.00;;;;;25.99;54.14;100475.05;111035;1258;15672;-48
2022/08/27 10:55:05;;;;;;;;;14.00;14.00;;;;;25.97;54.17;100474.09;110963;1258;15307;-47
2022/08/27 10:57:32;;;;;;;;;15.33;14.00;;;;;25.98;54.15;100475.31;110950;1257;15354;-47
2022/08/27 11:00:00;;;;;;;;;16.00;14.67;;;;;25.98;54.07;100472.52;110810;1258;15345;-45
2022/08/27 11:02:27;;;;;;;;;17.00;16.00;;;;;25.99;54.00;100469.44;111036;1258;13127;-44
2022/08/27 11:04:55;;;;;;;;;17.33;15.00;;;;;26.00;53.99;100464.02;110725;1259;14077;-47
2022/08/27 11:07:22;;;;;;;;;16.67;16.00;;;;;25.98;54.01;100467.42;110692;1258;14085;-49
2022/08/27 11:09:50;;;;;;;;;14.67;14.00;;;;;26.01;54.00;100470.27;110665;1259;15668;-48
2022/08/27 11:12:17;;;;;;;;;14.50;13.00;;;;;26.03;54.48;100469.08;110721;1259;15873;-48